EDDB

Berlin-Schönefeld International Airport

Berlin, Germany
TAF EDDB 232300Z 2400/2424 29020G35KT 9999 BKN020 PROB40 TEMPO 2400/2407 4000 -RADZ BKN012 BECMG 2400/2404 29015G25KT BECMG 2404/2408 29013KT BECMG 2415/2418 28007KT PROB30 TEMPO 2422/2424 4000 -RADZ BKN012
Issued Valid From Valid To
Oct-23 @ 23:00 UTC
(6 hours ago)
Oct-24 @ 00:00 UTC
(5 hours ago)
Oct-25 @ 00:00 UTC
(in 19 hours)
Oct-24 @ 00:00 to Oct-25 @ 00:00
TAF EDDB 232300Z 2400/2424 29020G35KT 9999 BKN020
Wind Visibility Clouds
290° at 20 knots
 Gusting to 35 knots
10,000+ meters
  • Broken at 2,000' AGL
Expired Click to View Oct-24 @ 00:00 to Oct-24 @ 04:00
BECMG 2400/2404 29015G25KT
Wind Visibility Clouds
290° at 15 knots
 Gusting to 25 knots
10,000+ meters
  • Broken at 2,000' AGL
Temporary  (Probability 40%) Oct-24 @ 00:00 to Oct-24 @ 07:00
PROB40 TEMPO 2400/2407 4000 -RADZ BKN012
Visibility Clouds Conditions
4,007 meters
  • Broken at 1,200' AGL
  • Light Rain
  • Light Drizzle
Becoming Oct-24 @ 04:00 to Oct-24 @ 15:00
BECMG 2404/2408 29013KT
Wind Visibility Clouds
290° at 13 knots 10,000+ meters
  • Broken at 2,000' AGL
Becoming Oct-24 @ 15:00 to Oct-25 @ 00:00
BECMG 2415/2418 28007KT
Wind Visibility Clouds
280° at 7 knots 10,000+ meters
  • Broken at 2,000' AGL
Temporary  (Probability 30%) Oct-24 @ 22:00 to Oct-25 @ 00:00
PROB30 TEMPO 2422/2424 4000 -RADZ BKN012
Visibility Clouds Conditions
4,007 meters
  • Broken at 1,200' AGL
  • Light Rain
  • Light Drizzle
TAF EDDB 232300Z 2400/2424 29020G35KT 9999 BKN020 PROB40 TEMPO 2400/2407 4000 -RADZ BKN012 BECMG 2400/2404 29015G25KT BECMG 2404/2408 29013KT BECMG 2415/2418 28007KT PROB30 TEMPO 2422/2424 4000 -RADZ BKN012
Issued Oct-23 @ 23:00 UTC
(6 hours ago)
Valid From Oct-24 @ 00:00 UTC
(5 hours ago)
Valid To Oct-25 @ 00:00 UTC
(in 19 hours)
Oct-24 @ 00:00 - Oct-25 @ 00:00
Wind Visibility
290° at 20 knots
 Gusting to 35 knots
10,000+ meters
Clouds
  • Broken at 2,000' AGL
Oct-24 @ 00:00 - Oct-24 @ 04:00
Wind Visibility
290° at 15 knots
 Gusting to 25 knots
10,000+ meters
Clouds
  • Broken at 2,000' AGL
Probability 40% Temporary Oct-24 @ 00:00 - Oct-24 @ 07:00
Clouds
  • Broken at 1,200' AGL
Conditions
  • Light Rain
  • Light Drizzle
Becoming Oct-24 @ 04:00 - Oct-24 @ 15:00
Wind Visibility
290° at 13 knots 10,000+ meters
Clouds
  • Broken at 2,000' AGL
Becoming Oct-24 @ 15:00 - Oct-25 @ 00:00
Wind Visibility
280° at 7 knots 10,000+ meters
Clouds
  • Broken at 2,000' AGL
Probability 30% Temporary Oct-24 @ 22:00 - Oct-25 @ 00:00
Clouds
  • Broken at 1,200' AGL
Conditions
  • Light Rain
  • Light Drizzle